METAR Data
IDs: Format: Raw Decoded Include TAF

Data at: 0232 UTC 25 Jan 2020

METAR for:KFFL (Fairfield Muni, IA, US)
Text:KFFL 250215Z AUTO 31010G15KT 2 1/2SM BR SCT006 OVC010 M00/M00 A2991 RMK A01
Temperature: 0.0°C ( 32°F)
Dewpoint: 0.0°C ( 32°F) [RH = 100%]
Pressure (altimeter):29.91 inches Hg (1013.0 mb)
Winds:from the NW (310 degrees) at 12 MPH (10 knots; 5.1 m/s) gusting to 17 MPH (15 knots; 7.7 m/s)
Visibility: 2.50 sm ( 4.02 km)
Ceiling:1000 feet AGL
Clouds: scattered clouds at 600 feet AGL, overcast cloud deck at 1000 feet AGL
Weather:BR (mist)
QC Flag:automated observation with no human augmentation